Time;durP1;ratioP1;P1;durP2;ratioP2;P2;SDS_P1;SDS_P2;PMS_P1;PMS_P2;Temp;Humidity;BMP_temperature;BMP_pressure;BME280_temperature;BME280_humidity;BME280_pressure;Samples;Min_cycle;Max_cycle;Signal;HPM_P1;HPM_P2
2023/12/16 00:00:46;;;;;;;5.07;3.65;;;;;;;5.55;59.24;97016.81;6161904;23;20009;-87
2023/12/16 00:03:11;;;;;;;7.07;4.63;;;;;;;5.47;59.38;97022.47;6188228;23;20150;-86
2023/12/16 00:10:30;;;;;;;5.47;3.65;;;;;;;5.25;60.14;97042.88;6238507;23;20025;-85
2023/12/16 00:12:55;;;;;;;5.32;3.65;;;;;;;5.00;60.40;97031.53;6139866;23;20008;-86
2023/12/16 00:20:24;;;;;;;4.93;3.45;;;;;;;5.28;59.87;97037.50;6251043;22;20082;-88
2023/12/16 00:22:53;;;;;;;5.95;3.80;;;;;;;5.52;58.69;97032.50;6248675;22;20035;-86
2023/12/16 00:25:18;;;;;;;4.93;3.45;;;;;;;5.08;59.94;97034.47;6248008;22;20007;-86
2023/12/16 00:32:54;;;;;;;5.75;3.95;;;;;;;5.31;60.14;97037.28;6274670;22;20054;-86
2023/12/16 00:48:06;;;;;;;6.88;3.45;;;;;;;5.00;59.82;97043.63;6265118;22;20004;-86
2023/12/16 00:50:32;;;;;;;4.78;3.80;;;;;;;4.23;63.12;97031.19;6247940;22;20066;-86
2023/12/16 00:52:58;;;;;;;6.07;4.05;;;;;;;4.68;61.53;97031.84;6247953;22;20000;-85
2023/12/16 00:55:27;;;;;;;5.28;3.70;;;;;;;4.89;60.95;97032.25;6247691;22;20008;-85
2023/12/16 00:57:52;;;;;;;6.20;3.92;;;;;;;4.92;61.00;97053.59;6247675;22;20019;-86
2023/12/16 01:02:53;;;;;;;5.80;4.10;;;;;;;4.83;61.36;97048.09;6265599;22;20011;-85
2023/12/16 01:05:19;;;;;;;6.13;4.00;;;;;;;4.92;60.65;97041.53;6248173;22;20019;-86
2023/12/16 01:07:46;;;;;;;4.93;3.60;;;;;;;4.90;60.93;97051.94;6222241;22;20003;-85
2023/12/16 01:10:14;;;;;;;5.88;4.20;;;;;;;5.15;59.84;97059.88;6247546;22;20094;-85
2023/12/16 01:17:41;;;;;;;5.40;3.70;;;;;;;4.92;60.24;97049.25;6273252;22;20089;-86
2023/12/16 01:20:07;;;;;;;5.95;3.80;;;;;;;4.84;60.56;97057.50;6247071;22;20015;-86
2023/12/16 01:22:33;;;;;;;5.03;3.40;;;;;;;5.14;59.16;97063.38;6219914;22;20022;-86
2023/12/16 01:24:58;;;;;;;5.63;3.63;;;;;;;4.35;61.31;97057.13;6222403;22;20004;-85
2023/12/16 01:29:49;;;;;;;6.72;4.40;;;;;;;4.65;60.48;97052.66;6186370;22;20020;-86
2023/12/16 01:32:14;;;;;;;7.28;4.70;;;;;;;4.60;61.65;97053.88;6186371;23;20015;-86
2023/12/16 01:34:42;;;;;;;8.88;4.93;;;;;;;4.25;62.60;97049.13;6137256;23;20004;-86
2023/12/16 01:37:07;;;;;;;10.70;5.25;;;;;;;4.39;61.92;97051.69;6137477;23;20010;-88
2023/12/16 01:44:36;;;;;;;6.65;3.85;;;;;;;4.91;60.02;97021.81;6212218;22;20025;-86
2023/12/16 01:47:02;;;;;;;5.95;3.50;;;;;;;4.74;60.18;97019.47;6137698;23;20035;-85
2023/12/16 01:49:28;;;;;;;6.25;3.83;;;;;;;4.66;60.72;97023.41;6211749;23;20036;-86
2023/12/16 01:51:53;;;;;;;5.63;3.30;;;;;;;4.85;60.13;97024.78;6162013;23;20117;-86
2023/12/16 01:54:20;;;;;;;6.07;3.50;;;;;;;5.02;59.55;97015.97;6161642;23;20036;-86
2023/12/16 02:06:56;;;;;;;5.03;3.30;;;;;;;4.89;59.35;97001.31;6273844;22;20022;-86
2023/12/16 02:09:24;;;;;;;4.72;3.08;;;;;;;4.83;59.52;97008.59;6272755;22;20004;-86
2023/12/16 02:11:54;;;;;;;4.53;3.33;;;;;;;4.96;59.04;97008.66;6247403;22;20078;-86
2023/12/16 02:16:54;;;;;;;4.28;2.97;;;;;;;5.08;59.10;97034.47;6242176;22;21215;-86
2023/12/16 02:19:25;;;;;;;4.13;2.70;;;;;;;4.70;59.24;97027.44;6217170;23;20016;-86
2023/12/16 02:21:53;;;;;;;4.07;2.67;;;;;;;4.56;60.18;97036.94;6216895;23;20004;-85
2023/12/16 02:24:19;;;;;;;3.72;2.65;;;;;;;4.64;60.48;97056.13;6216782;23;20008;-86
2023/12/16 02:29:11;;;;;;;4.18;2.80;;;;;;;4.07;61.79;97041.59;6242674;23;20028;-85
2023/12/16 02:31:36;;;;;;;5.20;2.85;;;;;;;3.95;62.23;97044.06;6191339;23;20062;-86
2023/12/16 02:46:58;;;;;;;4.45;2.58;;;;;;;5.09;59.29;97045.63;6241136;22;20016;-86
2023/12/16 02:52:01;;;;;;;3.25;2.40;;;;;;;4.72;59.32;97065.97;6241111;22;20012;-86
2023/12/16 03:02:07;;;;;;;3.88;2.13;;;;;;;4.78;59.52;97075.94;6241934;22;20039;-87
2023/12/16 03:04:33;;;;;;;3.55;2.15;;;;;;;4.65;59.30;97068.13;6191385;23;20032;-87
2023/12/16 03:06:58;;;;;;;2.90;2.28;;;;;;;4.73;58.58;97067.63;6237665;22;20019;-87
2023/12/16 03:09:27;;;;;;;2.72;2.00;;;;;;;4.30;59.47;97078.84;6215872;23;20016;-87
2023/12/16 03:11:53;;;;;;;3.15;2.15;;;;;;;4.60;58.59;97077.88;6216026;23;20028;-87
2023/12/16 03:14:18;;;;;;;4.20;2.10;;;;;;;4.66;58.46;97086.97;6215998;23;20004;-87
2023/12/16 03:21:44;;;;;;;4.88;3.22;;;;;;;4.68;59.02;97088.56;6273061;22;20019;-86
2023/12/16 03:31:45;;;;;;;4.13;2.50;;;;;;;4.17;59.27;97100.25;6265985;22;20024;-87
2023/12/16 03:34:11;;;;;;;4.22;2.35;;;;;;;4.35;59.18;97106.88;6194487;22;20068;-87
2023/12/16 03:36:41;;;;;;;3.55;2.63;;;;;;;4.23;59.33;97108.47;6221229;22;19999;-87
2023/12/16 03:44:07;;;;;;;4.50;2.92;;;;;;;4.14;60.18;97088.41;6246794;22;20020;-86
2023/12/16 03:46:32;;;;;;;3.88;2.53;;;;;;;4.58;59.29;97102.91;6248314;22;20007;-87
2023/12/16 03:51:33;;;;;;;3.95;2.58;;;;;;;4.33;60.71;97100.19;6245282;22;20027;-86
2023/12/16 03:53:58;;;;;;;4.20;2.88;;;;;;;4.61;59.10;97102.75;6248386;22;20091;-87
2023/12/16 03:56:24;;;;;;;4.72;3.45;;;;;;;4.55;59.58;97108.28;6198885;22;20008;-86
2023/12/16 03:58:49;;;;;;;4.38;3.10;;;;;;;4.42;61.00;97092.72;6198887;22;20128;-86
2023/12/16 04:06:25;;;;;;;5.65;3.30;;;;;;;4.74;59.55;97089.09;6265712;22;20020;-86
2023/12/16 04:21:27;;;;;;;3.20;2.40;;;;;;;4.75;58.35;97077.88;6274424;22;20023;-85
2023/12/16 04:23:52;;;;;;;3.65;2.22;;;;;;;4.85;57.94;97078.94;6197960;22;20003;-86
2023/12/16 04:26:18;;;;;;;4.28;2.00;;;;;;;4.96;57.36;97079.09;6223195;22;20015;-85
2023/12/16 04:28:43;;;;;;;2.88;2.05;;;;;;;4.84;57.69;97090.19;6248360;22;20059;-86
2023/12/16 04:36:17;;;;;;;2.90;2.13;;;;;;;4.73;57.99;97071.97;6231745;22;20037;-86
2023/12/16 04:38:43;;;;;;;2.72;2.00;;;;;;;4.70;57.57;97070.41;6223792;22;20008;-86
2023/12/16 04:41:14;;;;;;;2.92;2.08;;;;;;;4.84;57.44;97085.84;6248342;22;20019;-87
2023/12/16 04:43:40;;;;;;;2.65;1.95;;;;;;;4.53;58.33;97074.00;6222976;22;20171;-86
2023/12/16 04:46:06;;;;;;;3.55;2.20;;;;;;;4.75;57.98;97096.72;6248278;22;20026;-87
2023/12/16 04:48:33;;;;;;;3.13;1.80;;;;;;;4.45;58.63;97100.25;6248137;22;20081;-86
2023/12/16 04:58:40;;;;;;;4.20;2.33;;;;;;;4.43;58.49;97089.22;6208070;23;20078;-89
2023/12/16 05:01:05;;;;;;;3.47;2.40;;;;;;;4.35;58.80;97094.00;6185127;23;20079;-87
2023/12/16 05:03:32;;;;;;;3.10;2.10;;;;;;;4.45;58.17;97077.06;6214430;23;20012;-86
2023/12/16 05:05:57;;;;;;;3.55;2.40;;;;;;;4.41;59.05;97085.91;6208064;23;20023;-87
2023/12/16 05:08:27;;;;;;;3.78;2.40;;;;;;;4.36;58.88;97074.22;6190003;23;20031;-87
2023/12/16 05:10:56;;;;;;;4.10;2.00;;;;;;;4.41;58.11;97085.09;6217567;23;20056;-86
2023/12/16 05:13:21;;;;;;;2.97;2.20;;;;;;;4.22;58.89;97086.19;6192572;23;20031;-87
2023/12/16 05:18:26;;;;;;;2.60;1.67;;;;;;;3.85;59.48;97072.94;6241143;22;20024;-88
2023/12/16 05:20:51;;;;;;;2.65;1.70;;;;;;;3.71;59.68;97078.03;6217448;23;20011;-86
2023/12/16 05:25:52;;;;;;;2.88;2.00;;;;;;;4.36;58.57;97093.09;6273343;22;20027;-86
2023/12/16 05:28:21;;;;;;;3.30;2.10;;;;;;;4.56;58.11;97098.78;6222431;22;20007;-86
2023/12/16 05:35:46;;;;;;;3.45;2.45;;;;;;;4.46;58.30;97090.78;6274432;22;20020;-86
2023/12/16 05:38:12;;;;;;;3.75;2.60;;;;;;;4.47;58.41;97075.25;6247475;22;20067;-86
2023/12/16 05:40:41;;;;;;;3.78;2.50;;;;;;;4.33;58.45;97082.97;6222492;22;20011;-86
2023/12/16 05:43:08;;;;;;;3.50;2.35;;;;;;;4.44;57.91;97074.59;6222250;22;20067;-86
2023/12/16 06:00:55;;;;;;;3.15;2.20;;;;;;;4.40;58.28;97078.25;6242227;22;20016;-86
2023/12/16 06:03:20;;;;;;;3.20;2.30;;;;;;;4.49;57.86;97081.13;6192028;23;20034;-86
2023/12/16 06:05:46;;;;;;;3.47;2.35;;;;;;;4.42;57.78;97071.28;6217212;23;20005;-86
2023/12/16 06:08:11;;;;;;;4.10;2.20;;;;;;;4.56;57.39;97073.84;6217090;23;20008;-87
2023/12/16 06:10:37;;;;;;;3.63;2.42;;;;;;;4.45;57.49;97071.91;6189976;23;20018;-87
2023/12/16 06:20:41;;;;;;;2.45;1.85;;;;;;;4.34;57.79;97084.66;6258887;22;20027;-86
2023/12/16 06:23:07;;;;;;;2.83;1.77;;;;;;;4.16;58.32;97090.91;6222560;22;20035;-86
2023/12/16 06:28:08;;;;;;;3.20;1.80;;;;;;;4.13;58.62;97083.34;6273704;22;20016;-86
2023/12/16 06:30:34;;;;;;;4.63;2.00;;;;;;;4.25;58.91;97083.44;6222364;22;20023;-86
2023/12/16 06:33:00;;;;;;;3.90;2.40;;;;;;;4.28;58.70;97090.16;6246920;22;20014;-88
2023/12/16 06:35:25;;;;;;;4.13;2.53;;;;;;;4.33;58.31;97071.84;6222736;22;20012;-86
2023/12/16 06:47:53;;;;;;;7.88;5.85;;;;;;;4.50;57.53;97098.22;6211352;22;20043;-86
2023/12/16 06:50:19;;;;;;;8.15;6.32;;;;;;;4.50;57.00;97085.34;6136851;23;20009;-85
2023/12/16 07:18:36;;;;;;;8.77;6.50;;;;;;;4.07;58.37;97102.56;6209591;22;20023;-87
2023/12/16 07:23:40;;;;;;;45.13;21.17;;;;;;;4.36;57.67;97095.69;6211254;23;20012;-86
2023/12/16 07:26:05;;;;;;;257.25;75.25;;;;;;;4.16;58.68;97096.88;6162135;23;20016;-86
2023/12/16 07:28:31;;;;;;;68.18;26.77;;;;;;;4.38;57.51;97106.72;6161326;23;20012;-87
2023/12/16 07:30:57;;;;;;;20.70;13.73;;;;;;;4.34;58.14;97109.56;6137600;23;20013;-86
2023/12/16 07:33:24;;;;;;;11.10;7.63;;;;;;;4.31;57.72;97103.66;6161313;23;20012;-87
2023/12/16 07:35:50;;;;;;;14.40;9.70;;;;;;;4.25;57.52;97116.09;6136816;23;20123;-87
2023/12/16 08:06:46;;;;;;;3.17;2.30;;;;;;;6.77;52.64;97135.22;6199619;23;20024;-87
2023/12/16 08:09:12;;;;;;;4.47;3.20;;;;;;;8.04;50.01;97125.22;6186468;23;20028;-87
2023/12/16 08:19:04;;;;;;;10.25;9.13;;;;;;;10.66;44.29;97125.19;6238100;22;20028;-85
2023/12/16 08:21:32;;;;;;;14.35;10.50;;;;;;;10.91;43.54;97131.72;6212720;23;20035;-86
2023/12/16 08:23:57;;;;;;;23.02;14.68;;;;;;;11.49;42.35;97133.63;6190690;23;20065;-86
2023/12/16 08:26:24;;;;;;;6.97;5.22;;;;;;;12.35;40.51;97123.25;6187015;23;20027;-86
2023/12/16 08:28:50;;;;;;;3.03;2.30;;;;;;;12.51;39.96;97123.50;6204852;23;20039;-86
2023/12/16 08:31:16;;;;;;;2.13;1.85;;;;;;;13.05;38.38;97135.91;6242923;23;20004;-86
2023/12/16 08:53:53;;;;;;;2.47;2.10;;;;;;;13.93;37.26;97143.19;6242971;22;20030;-85
2023/12/16 08:56:18;;;;;;;3.47;2.47;;;;;;;13.44;38.14;97156.59;6193185;23;20042;-85
2023/12/16 08:58:47;;;;;;;5.05;2.30;;;;;;;13.66;36.84;97153.56;6187937;23;19997;-85
2023/12/16 09:01:13;;;;;;;3.50;2.70;;;;;;;14.38;37.31;97152.69;6212899;23;20031;-87
2023/12/16 09:03:42;;;;;;;3.42;2.88;;;;;;;14.37;37.61;97154.44;6167718;23;20012;-85
2023/12/16 12:49:08;;;;;;;5.97;4.63;;;;;;;10.09;49.45;97042.38;6264011;22;20024;-86
2023/12/16 12:54:02;;;;;;;5.43;4.67;;;;;;;9.96;49.58;97036.56;6215515;22;20020;-86
2023/12/16 12:56:27;;;;;;;5.78;4.45;;;;;;;9.84;49.85;97035.78;6216054;23;20295;-85
2023/12/16 13:06:29;;;;;;;5.05;4.35;;;;;;;9.76;49.31;97026.03;6210998;22;20016;-85
2023/12/16 13:08:54;;;;;;;6.45;5.00;;;;;;;9.89;50.50;97036.22;6186391;23;20008;-85
2023/12/16 13:11:22;;;;;;;5.90;4.80;;;;;;;10.01;50.80;97043.94;6165349;23;20008;-85
2023/12/16 13:13:47;;;;;;;9.10;5.20;;;;;;;9.82;51.61;97027.28;6137293;23;20016;-85
2023/12/16 13:16:15;;;;;;;6.13;5.30;;;;;;;10.22;50.75;97043.91;6186564;23;20043;-85
2023/12/16 13:18:42;;;;;;;5.55;4.75;;;;;;;10.22;49.68;97039.53;6161247;23;20004;-86
2023/12/16 13:21:08;;;;;;;6.30;5.05;;;;;;;9.86;50.77;97039.09;6137845;23;20020;-85
2023/12/16 13:23:33;;;;;;;5.93;4.93;;;;;;;10.00;50.17;97043.13;6161076;23;20004;-85
2023/12/16 13:25:59;;;;;;;5.93;5.00;;;;;;;9.98;49.85;97037.25;6186366;23;20004;-85
2023/12/16 13:28:24;;;;;;;7.43;5.63;;;;;;;10.38;49.53;97052.09;6137213;23;20004;-85
2023/12/16 13:30:54;;;;;;;7.95;5.63;;;;;;;10.12;50.14;97041.28;6186003;23;20015;-86
2023/12/16 13:33:19;;;;;;;6.75;5.55;;;;;;;9.89;50.22;97040.63;6161840;23;20040;-86
2023/12/16 13:35:47;;;;;;;6.63;5.53;;;;;;;10.22;50.20;97054.31;6137498;23;20008;-86
2023/12/16 13:38:16;;;;;;;7.47;6.10;;;;;;;10.04;50.88;97054.91;6162145;23;20036;-86
2023/12/16 13:40:41;;;;;;;8.05;6.03;;;;;;;9.95;50.79;97059.09;6186203;23;20024;-85
2023/12/16 13:45:33;;;;;;;6.95;5.35;;;;;;;9.90;49.65;97057.84;6212409;22;20035;-87
2023/12/16 13:48:00;;;;;;;7.20;5.10;;;;;;;9.51;50.36;97047.22;6137307;23;20016;-87
2023/12/16 13:50:25;;;;;;;7.53;5.68;;;;;;;9.82;49.98;97055.06;6162579;23;20012;-86
2023/12/16 13:52:54;;;;;;;8.65;6.10;;;;;;;10.02;49.53;97063.81;6136606;23;20017;-86
2023/12/16 13:55:23;;;;;;;8.75;6.60;;;;;;;9.72;50.62;97058.41;6161440;23;20091;-85
2023/12/16 13:57:48;;;;;;;9.15;6.97;;;;;;;9.48;51.28;97055.25;6136196;23;20011;-85
2023/12/16 14:00:14;;;;;;;10.05;7.00;;;;;;;9.54;51.38;97052.97;6136995;23;20008;-85
2023/12/16 14:02:44;;;;;;;11.32;7.80;;;;;;;9.44;51.75;97064.22;6137351;23;20008;-85
2023/12/16 14:05:09;;;;;;;10.38;7.43;;;;;;;9.39;51.14;97049.03;6162763;23;20056;-85
2023/12/16 14:07:35;;;;;;;11.10;7.47;;;;;;;9.23;52.28;97053.81;6186490;23;20001;-86
2023/12/16 14:10:04;;;;;;;10.82;7.70;;;;;;;9.17;52.18;97044.75;6210824;23;20008;-85
2023/12/16 14:12:33;;;;;;;10.82;7.65;;;;;;;9.16;52.07;97064.69;6160755;23;20009;-85
2023/12/16 14:14:59;;;;;;;12.20;8.35;;;;;;;8.95;52.50;97056.03;6161700;23;20028;-85
2023/12/16 14:17:24;;;;;;;11.35;8.52;;;;;;;9.12;52.47;97054.66;6136764;23;20016;-85
2023/12/16 14:19:49;;;;;;;10.73;7.93;;;;;;;9.45;52.11;97063.28;6162018;23;20016;-85
2023/12/16 14:22:18;;;;;;;11.65;8.70;;;;;;;9.09;52.94;97058.34;6185674;23;20048;-86
2023/12/16 14:24:43;;;;;;;13.85;9.05;;;;;;;8.82;53.04;97065.75;6161771;23;20119;-86
2023/12/16 14:27:08;;;;;;;11.80;8.05;;;;;;;8.76;53.45;97069.66;6186420;23;20063;-85
2023/12/16 14:29:38;;;;;;;10.30;7.57;;;;;;;9.16;52.35;97069.88;6135857;23;20013;-86
2023/12/16 14:32:03;;;;;;;12.10;8.43;;;;;;;9.15;51.82;97076.00;6185988;23;20032;-86
2023/12/16 14:34:33;;;;;;;14.27;8.55;;;;;;;8.90;52.48;97079.75;6136468;23;20020;-84
2023/12/16 14:36:59;;;;;;;12.15;8.18;;;;;;;8.74;53.14;97071.53;6161247;23;20040;-86
2023/12/16 14:39:24;;;;;;;12.52;8.80;;;;;;;8.77;53.43;97069.50;6136153;23;20013;-85
2023/12/16 14:41:53;;;;;;;12.73;9.30;;;;;;;8.70;53.14;97088.25;6161408;23;20023;-85
2023/12/16 14:44:19;;;;;;;14.18;8.98;;;;;;;8.70;53.47;97083.06;6160997;23;20096;-85
2023/12/16 14:46:45;;;;;;;12.23;8.90;;;;;;;8.59;53.88;97084.75;6177397;23;20121;-86
2023/12/16 14:49:10;;;;;;;13.95;9.77;;;;;;;8.80;52.55;97055.47;6190808;23;20012;-85
2023/12/16 14:51:38;;;;;;;13.43;9.70;;;;;;;8.50;53.68;97072.47;6190946;23;20004;-86
2023/12/16 14:54:04;;;;;;;13.57;9.48;;;;;;;8.40;53.88;97071.53;6216194;23;20019;-85
2023/12/16 14:56:29;;;;;;;15.73;10.20;;;;;;;8.10;54.96;97074.69;6213007;23;20008;-86
2023/12/16 14:58:55;;;;;;;14.90;10.00;;;;;;;7.99;54.57;97067.72;6189975;23;20016;-85
2023/12/16 15:01:24;;;;;;;15.50;9.90;;;;;;;7.95;54.76;97066.31;6210582;23;20027;-86
2023/12/16 15:03:50;;;;;;;15.13;10.10;;;;;;;7.71;55.10;97043.91;6215113;23;20015;-85
2023/12/16 15:06:16;;;;;;;16.42;10.32;;;;;;;7.22;56.28;97042.34;6190234;23;20016;-86
2023/12/16 15:08:44;;;;;;;16.00;10.55;;;;;;;7.38;55.88;97042.03;6214526;23;20004;-85
2023/12/16 15:11:10;;;;;;;17.48;11.10;;;;;;;6.96;57.45;97039.84;6207364;23;20020;-86
2023/12/16 15:13:39;;;;;;;18.42;11.32;;;;;;;7.00;57.40;97036.09;6214047;23;20012;-85
2023/12/16 15:16:06;;;;;;;20.00;11.95;;;;;;;7.13;57.05;97032.66;6207034;23;20012;-85
2023/12/16 15:18:31;;;;;;;18.80;11.93;;;;;;;7.08;57.53;97032.16;6212578;23;19996;-86
2023/12/16 15:20:58;;;;;;;19.83;11.85;;;;;;;6.79;58.30;97029.88;6215145;23;20011;-86
2023/12/16 15:23:24;;;;;;;19.48;12.20;;;;;;;6.84;58.60;97043.31;6186749;23;20011;-84
2023/12/16 15:25:49;;;;;;;19.58;12.13;;;;;;;6.67;59.06;97033.34;6179781;23;20040;-85
2023/12/16 15:28:15;;;;;;;22.17;13.70;;;;;;;6.64;58.92;97039.56;6215850;23;20047;-85
2023/12/16 15:30:40;;;;;;;23.70;13.70;;;;;;;6.63;58.88;97045.69;6190859;23;20058;-85
2023/12/16 15:33:06;;;;;;;23.55;13.40;;;;;;;6.41;59.86;97048.91;6208153;23;20019;-85
2023/12/16 15:35:31;;;;;;;18.67;12.27;;;;;;;6.34;59.89;97045.94;6215767;23;20008;-85
2023/12/16 15:37:57;;;;;;;22.33;13.90;;;;;;;6.21;60.17;97022.72;6216094;23;20087;-85
2023/12/16 15:40:27;;;;;;;20.98;13.07;;;;;;;6.38;60.11;97036.22;6212162;23;20012;-85
2023/12/16 15:42:53;;;;;;;23.38;14.02;;;;;;;6.59;59.03;97024.38;6182771;23;20035;-86
2023/12/16 15:45:19;;;;;;;23.95;13.80;;;;;;;6.22;60.14;97026.94;6193537;23;20012;-86
2023/12/16 15:50:09;;;;;;;20.60;12.53;;;;;;;6.22;59.33;97037.25;6211940;22;20025;-85
2023/12/16 15:52:36;;;;;;;20.25;12.43;;;;;;;6.23;59.30;97032.94;6162939;23;20244;-85
2023/12/16 15:55:03;;;;;;;20.75;12.23;;;;;;;6.16;58.89;97037.69;6139516;23;20099;-86
2023/12/16 15:57:30;;;;;;;23.30;14.18;;;;;;;5.98;59.84;97036.38;6212944;23;20044;-85
2023/12/16 15:59:55;;;;;;;22.58;13.93;;;;;;;5.59;60.85;97023.41;6162887;23;20012;-85
2023/12/16 16:02:21;;;;;;;28.40;15.10;;;;;;;5.84;60.07;97024.34;6161788;23;20011;-85
2023/12/16 16:04:48;;;;;;;30.73;16.05;;;;;;;5.79;60.17;97016.09;6186959;23;20005;-85
2023/12/16 16:07:14;;;;;;;27.60;15.20;;;;;;;5.44;60.96;97007.19;6163439;23;20087;-85
2023/12/16 16:09:39;;;;;;;33.20;16.65;;;;;;;5.26;62.05;96993.75;6162690;23;20043;-85
2023/12/16 16:12:05;;;;;;;30.85;15.25;;;;;;;5.34;61.54;97006.16;6138684;23;20063;-85
2023/12/16 16:14:31;;;;;;;37.33;17.35;;;;;;;5.24;61.75;97008.50;6137278;23;20047;-84
2023/12/16 16:16:57;;;;;;;34.90;15.73;;;;;;;4.92;63.34;97004.63;6138055;23;20004;-85
2023/12/16 16:19:22;;;;;;;28.55;15.90;;;;;;;4.97;62.65;97003.41;6186727;23;20008;-85
2023/12/16 16:21:48;;;;;;;32.90;16.95;;;;;;;5.06;62.40;96994.22;6138509;23;20019;-85
2023/12/16 16:24:13;;;;;;;33.42;16.98;;;;;;;5.15;62.81;97018.59;6137731;23;20047;-85
2023/12/16 16:26:38;;;;;;;40.30;17.52;;;;;;;5.24;62.95;97013.66;6161870;23;20067;-85
2023/12/16 16:29:04;;;;;;;152.40;22.48;;;;;;;5.14;63.05;97004.88;6137508;23;20009;-85
2023/12/16 16:31:30;;;;;;;196.15;22.98;;;;;;;5.10;63.09;97011.16;6162672;23;20070;-85
2023/12/16 16:33:56;;;;;;;163.15;21.95;;;;;;;5.16;62.65;97003.03;6163055;23;20009;-85
2023/12/16 16:36:25;;;;;;;88.10;21.83;;;;;;;5.25;62.59;97006.75;6188010;23;20134;-85
2023/12/16 16:38:52;;;;;;;48.13;18.95;;;;;;;5.05;63.23;96997.75;6138961;23;20074;-85
2023/12/16 16:41:18;;;;;;;158.68;24.65;;;;;;;5.29;62.76;97010.78;6138002;23;20068;-85
2023/12/16 16:43:44;;;;;;;137.18;22.02;;;;;;;5.08;63.02;97003.53;6187164;23;20103;-84
2023/12/16 16:46:10;;;;;;;31.85;17.15;;;;;;;5.24;62.04;97003.34;6137607;23;20009;-84
2023/12/16 16:48:35;;;;;;;28.55;16.98;;;;;;;5.39;61.09;97001.53;6162255;23;20078;-85
2023/12/16 16:51:01;;;;;;;22.25;13.90;;;;;;;5.13;61.29;96989.50;6186636;23;20027;-85
2023/12/16 16:53:26;;;;;;;21.48;14.55;;;;;;;5.15;61.06;96988.47;6191381;23;20000;-85
2023/12/16 16:55:53;;;;;;;23.20;15.10;;;;;;;5.15;60.17;96977.34;6192514;23;20011;-85
2023/12/16 16:58:22;;;;;;;17.55;11.95;;;;;;;4.76;60.87;96982.41;6192074;23;20090;-85
2023/12/16 17:00:47;;;;;;;18.88;12.48;;;;;;;5.05;60.66;96977.94;6216775;23;20011;-85
2023/12/16 17:03:13;;;;;;;15.70;11.15;;;;;;;5.00;60.20;96984.31;6192046;23;20012;-85
2023/12/16 17:05:39;;;;;;;15.02;10.05;;;;;;;5.15;60.04;96992.81;6215785;23;20014;-84
2023/12/16 17:08:08;;;;;;;18.48;11.18;;;;;;;5.12;59.56;96973.19;6217223;23;20008;-85
2023/12/16 17:10:33;;;;;;;22.60;13.40;;;;;;;5.27;59.84;96992.00;6190390;23;20019;-85
2023/12/16 17:13:03;;;;;;;20.58;12.48;;;;;;;4.94;60.58;96995.84;6191888;23;20091;-85
2023/12/16 17:15:29;;;;;;;25.00;15.32;;;;;;;4.86;60.76;97008.41;6192319;23;20022;-85
2023/12/16 17:17:55;;;;;;;27.23;15.38;;;;;;;4.93;60.11;96994.22;6191628;23;20040;-85
2023/12/16 17:20:20;;;;;;;61.58;25.33;;;;;;;4.61;62.53;97007.38;6162961;23;20044;-85
2023/12/16 17:22:45;;;;;;;37.97;19.40;;;;;;;4.23;63.35;96999.47;6191783;23;20011;-85
2023/12/16 17:25:11;;;;;;;55.25;23.58;;;;;;;4.37;62.91;97014.88;6162171;23;20078;-85
2023/12/16 17:27:37;;;;;;;35.22;17.88;;;;;;;3.93;64.33;96995.25;6177631;23;20078;-85
2023/12/16 17:30:02;;;;;;;34.85;18.23;;;;;;;4.24;63.23;97001.91;6217116;23;20004;-85
2023/12/16 17:32:28;;;;;;;30.35;16.38;;;;;;;4.36;62.26;97009.81;6188063;23;20008;-85
2023/12/16 17:34:53;;;;;;;26.92;16.25;;;;;;;4.46;61.84;97006.59;6191653;23;20058;-85
2023/12/16 17:37:19;;;;;;;28.08;15.55;;;;;;;4.54;61.39;97016.41;6186975;23;20100;-84
2023/12/16 17:39:44;;;;;;;27.90;17.27;;;;;;;4.56;60.73;97018.91;6191512;23;20043;-84
2023/12/16 17:42:10;;;;;;;26.00;16.45;;;;;;;4.43;61.27;97029.94;6191815;23;20012;-85
2023/12/16 17:44:35;;;;;;;23.98;13.13;;;;;;;4.30;61.87;97027.31;6165584;23;20021;-84
2023/12/16 17:47:01;;;;;;;23.02;12.82;;;;;;;4.36;61.78;97027.84;6216718;23;20015;-85
2023/12/16 17:49:26;;;;;;;19.85;12.07;;;;;;;4.31;61.19;97021.25;6157661;23;20025;-85
2023/12/16 17:51:52;;;;;;;19.77;11.57;;;;;;;4.46;60.73;97041.84;6186507;23;20087;-85
2023/12/16 17:54:18;;;;;;;108.07;18.50;;;;;;;4.36;61.00;97061.34;6136995;23;20012;-85
2023/12/16 17:56:43;;;;;;;125.32;21.48;;;;;;;4.33;61.78;97071.84;6186025;23;20036;-85
2023/12/16 17:59:09;;;;;;;196.05;24.92;;;;;;;3.92;63.45;97066.50;6161701;23;20009;-85
2023/12/16 18:01:34;;;;;;;184.52;25.42;;;;;;;4.01;63.84;97079.75;6161700;23;20032;-85
2023/12/16 18:04:00;;;;;;;383.63;31.13;;;;;;;3.98;63.68;97060.16;6161645;23;20004;-85
2023/12/16 18:06:25;;;;;;;309.63;29.25;;;;;;;4.14;64.18;97066.97;6161848;23;20012;-85
2023/12/16 18:08:51;;;;;;;234.75;27.85;;;;;;;4.15;64.43;97082.34;6161377;23;20004;-86
2023/12/16 18:11:17;;;;;;;316.77;30.20;;;;;;;3.79;65.49;97070.72;6136986;23;20008;-85
2023/12/16 18:13:44;;;;;;;583.92;38.28;;;;;;;3.87;65.39;97081.41;6186346;23;20013;-85
2023/12/16 18:16:10;;;;;;;260.25;28.00;;;;;;;4.03;64.83;97062.47;6185831;23;20085;-84
2023/12/16 18:18:40;;;;;;;408.42;31.20;;;;;;;4.10;64.98;97076.63;6185829;23;20055;-85
2023/12/16 18:21:07;;;;;;;411.02;31.40;;;;;;;3.75;66.64;97070.97;6162104;23;20016;-85
2023/12/16 18:23:32;;;;;;;651.88;41.00;;;;;;;3.63;67.09;97059.66;6161242;23;20039;-85
2023/12/16 18:26:00;;;;;;;401.45;34.47;;;;;;;4.16;64.62;97076.25;6136691;23;20009;-85
2023/12/16 18:28:25;;;;;;;304.23;28.55;;;;;;;3.74;66.26;97066.75;6137295;23;20043;-85
2023/12/16 18:30:52;;;;;;;279.75;27.40;;;;;;;3.56;67.30;97064.34;6160906;23;20016;-85
2023/12/16 18:33:18;;;;;;;410.08;36.85;;;;;;;3.51;67.76;97077.47;6136462;23;20012;-85
2023/12/16 18:35:43;;;;;;;535.75;38.53;;;;;;;3.05;68.89;97059.50;6136281;23;20016;-85
2023/12/16 18:38:09;;;;;;;279.23;28.38;;;;;;;3.58;67.34;97067.66;6135470;23;20012;-85
2023/12/16 18:40:37;;;;;;;248.40;27.33;;;;;;;3.72;67.45;97069.41;6160345;23;20091;-85
2023/12/16 18:43:03;;;;;;;120.68;23.80;;;;;;;3.98;65.51;97072.19;6161478;23;20009;-85
2023/12/16 18:45:29;;;;;;;181.00;24.48;;;;;;;4.05;65.24;97076.06;6160514;23;20035;-85
2023/12/16 18:47:55;;;;;;;133.75;24.20;;;;;;;3.97;65.96;97065.41;6161395;23;20008;-85
2023/12/16 18:50:21;;;;;;;142.68;21.73;;;;;;;4.11;64.81;97053.38;6185299;23;20021;-85
2023/12/16 18:52:50;;;;;;;128.48;22.83;;;;;;;4.18;65.02;97064.13;6136286;23;20083;-85
2023/12/16 18:55:15;;;;;;;87.43;21.70;;;;;;;4.20;64.33;97051.97;6137195;23;20009;-85
2023/12/16 18:57:45;;;;;;;57.83;22.95;;;;;;;4.12;64.61;97056.75;6160580;23;20086;-85
2023/12/16 19:00:11;;;;;;;75.47;19.95;;;;;;;4.35;63.75;97062.28;6160618;23;20022;-85
2023/12/16 19:02:37;;;;;;;74.68;19.77;;;;;;;4.22;63.47;97050.13;6135989;23;20008;-86
2023/12/16 19:05:05;;;;;;;133.00;22.15;;;;;;;4.19;63.71;97060.63;6136233;23;20017;-85
2023/12/16 19:07:30;;;;;;;61.15;19.88;;;;;;;4.17;63.29;97061.63;6161354;23;20012;-86
2023/12/16 19:09:56;;;;;;;72.70;19.38;;;;;;;4.20;63.19;97064.03;6135851;23;20067;-85
2023/12/16 19:12:22;;;;;;;53.38;17.63;;;;;;;4.14;63.47;97077.28;6160678;23;20008;-85
2023/12/16 19:14:47;;;;;;;81.80;19.88;;;;;;;4.13;62.69;97060.97;6184403;23;20025;-85
2023/12/16 19:17:13;;;;;;;70.97;18.92;;;;;;;4.06;63.24;97070.00;6160520;23;20072;-85
2023/12/16 19:19:42;;;;;;;128.27;20.25;;;;;;;3.92;63.56;97074.25;6185298;23;20044;-85
2023/12/16 19:22:12;;;;;;;147.45;20.38;;;;;;;3.98;62.99;97077.34;6136890;23;20012;-85
2023/12/16 19:24:41;;;;;;;89.55;19.00;;;;;;;3.87;63.44;97073.66;6161224;23;20006;-85
2023/12/16 19:27:07;;;;;;;68.53;17.27;;;;;;;3.73;63.92;97068.50;6185307;23;20009;-85
2023/12/16 19:29:38;;;;;;;144.45;21.67;;;;;;;3.74;63.56;97077.06;6160593;23;20008;-85
2023/12/16 19:32:05;;;;;;;146.85;22.23;;;;;;;3.66;63.78;97077.50;6160333;23;20013;-85
2023/12/16 19:34:30;;;;;;;133.63;26.30;;;;;;;3.51;63.88;97056.88;6185197;23;20016;-85
2023/12/16 19:36:56;;;;;;;47.97;18.65;;;;;;;3.74;63.38;97075.31;6185020;23;20064;-85
2023/12/16 19:39:22;;;;;;;34.33;17.58;;;;;;;3.62;63.13;97056.25;6160280;23;20094;-85
2023/12/16 19:41:54;;;;;;;24.27;13.05;;;;;;;4.18;61.81;97089.88;6184960;23;20004;-85
2023/12/16 19:44:22;;;;;;;30.50;15.75;;;;;;;4.09;60.94;97085.25;6184391;23;20016;-85
2023/12/16 19:46:51;;;;;;;30.92;17.33;;;;;;;4.11;60.41;97093.72;6185328;23;20090;-86